Time;durP1;ratioP1;P1;durP2;ratioP2;P2;SDS_P1;SDS_P2;PMS_P1;PMS_P2;Temp;Humidity;BMP_temperature;BMP_pressure;BME280_temperature;BME280_humidity;BME280_pressure;Samples;Min_cycle;Max_cycle;Signal;HPM_P1;HPM_P2
2024/03/30 00:01:23;;;;;;;1.25;0.82;;;;;;;-146.04;100.00;56920.13;4960259;28;20212;-69
2024/03/30 00:03:48;;;;;;;0.88;0.80;;;;;;;-146.04;100.00;56920.13;4953615;28;20266;-70
2024/03/30 00:06:14;;;;;;;0.85;0.70;;;;;;;-146.04;100.00;56920.13;4951615;28;20207;-68
2024/03/30 00:08:39;;;;;;;0.77;0.77;;;;;;;-146.04;100.00;56920.13;4951612;28;20649;-67
2024/03/30 00:11:04;;;;;;;2.17;0.88;;;;;;;-146.04;100.00;56920.13;4951516;28;20731;-69
2024/03/30 00:13:30;;;;;;;1.13;1.02;;;;;;;-146.04;100.00;56920.13;4948397;28;20600;-68
2024/03/30 00:15:56;;;;;;;1.77;1.00;;;;;;;-146.04;100.00;56920.13;4965751;28;20226;-65
2024/03/30 00:18:22;;;;;;;1.67;0.95;;;;;;;-146.04;100.00;56920.13;4967325;28;20184;-67
2024/03/30 00:20:47;;;;;;;1.37;0.93;;;;;;;-146.04;100.00;56920.13;4970409;28;20526;-69
2024/03/30 00:23:13;;;;;;;2.77;1.00;;;;;;;-146.04;100.00;56920.13;4967616;28;20759;-68
2024/03/30 00:25:38;;;;;;;1.83;1.08;;;;;;;-146.04;100.00;56920.13;4966421;28;20207;-68
2024/03/30 00:28:04;;;;;;;1.10;1.00;;;;;;;-146.04;100.00;56920.13;4963778;28;20192;-68
2024/03/30 00:30:35;;;;;;;1.08;0.85;;;;;;;-146.04;100.00;56920.13;4964909;28;21772;-69
2024/03/30 00:33:00;;;;;;;2.97;1.88;;;;;;;-146.04;100.00;56920.13;4973140;28;20188;-69
2024/03/30 00:35:25;;;;;;;2.67;1.20;;;;;;;-146.04;100.00;56920.13;4966416;28;20270;-68
2024/03/30 00:37:53;;;;;;;1.10;0.98;;;;;;;-146.04;100.00;56920.13;4963739;28;20180;-67
2024/03/30 00:40:19;;;;;;;1.85;1.17;;;;;;;-146.04;100.00;56920.13;4962652;28;20187;-69
2024/03/30 00:42:46;;;;;;;1.07;0.77;;;;;;;-146.04;100.00;56920.13;4964595;28;20188;-67
2024/03/30 00:45:11;;;;;;;1.00;0.80;;;;;;;-146.04;100.00;56920.13;4962754;28;20250;-69
2024/03/30 00:47:37;;;;;;;1.77;0.80;;;;;;;-146.04;100.00;56920.13;4962546;28;20644;-69
2024/03/30 00:50:02;;;;;;;1.27;1.10;;;;;;;-146.04;100.00;56920.13;4953053;28;20267;-69
2024/03/30 00:52:28;;;;;;;1.17;1.07;;;;;;;-146.04;100.00;56920.13;4957992;28;20187;-69
2024/03/30 00:54:53;;;;;;;1.08;0.98;;;;;;;-146.04;100.00;56920.13;4962978;28;20299;-69
2024/03/30 00:57:18;;;;;;;1.30;1.03;;;;;;;-146.04;100.00;56920.13;4963756;28;20180;-68
2024/03/30 00:59:44;;;;;;;1.13;0.80;;;;;;;-146.04;100.00;56920.13;4964860;28;20188;-69
2024/03/30 01:02:09;;;;;;;2.90;0.97;;;;;;;-146.04;100.00;56920.13;4963061;28;20580;-70
2024/03/30 01:04:34;;;;;;;2.08;1.20;;;;;;;-146.04;100.00;56920.13;4980614;23;20735;-72
2024/03/30 01:07:01;;;;;;;2.15;1.02;;;;;;;-146.04;100.00;56920.13;4961941;28;20251;-72
2024/03/30 01:09:27;;;;;;;1.77;1.30;;;;;;;-146.04;100.00;56920.13;4961206;28;20212;-72
2024/03/30 01:11:52;;;;;;;1.33;1.00;;;;;;;-146.04;100.00;56920.13;4962051;28;20203;-73
2024/03/30 01:14:21;;;;;;;0.95;0.82;;;;;;;-146.04;100.00;56920.13;4963709;28;20192;-71
2024/03/30 01:16:47;;;;;;;1.07;0.70;;;;;;;-146.04;100.00;56920.13;4955630;28;20201;-74
2024/03/30 01:19:12;;;;;;;1.03;0.90;;;;;;;-146.04;100.00;56920.13;4951601;28;20195;-72
2024/03/30 01:21:38;;;;;;;1.30;1.00;;;;;;;-146.04;100.00;56920.13;4960069;28;20207;-72
2024/03/30 01:24:03;;;;;;;1.10;1.00;;;;;;;-146.04;100.00;56920.13;4952233;28;20204;-72
2024/03/30 01:26:29;;;;;;;1.10;1.00;;;;;;;-146.04;100.00;56920.13;4953737;28;20603;-73
2024/03/30 01:28:57;;;;;;;1.80;1.05;;;;;;;-146.04;100.00;56920.13;4949666;28;20243;-71
2024/03/30 01:31:23;;;;;;;1.40;1.30;;;;;;;-146.04;100.00;56920.13;4951684;28;20272;-72
2024/03/30 01:33:48;;;;;;;1.97;1.30;;;;;;;-146.04;100.00;56920.13;4954678;28;20332;-73
2024/03/30 01:36:14;;;;;;;2.20;1.13;;;;;;;-146.04;100.00;56920.13;4953671;28;20562;-72
2024/03/30 01:38:39;;;;;;;0.90;0.80;;;;;;;-146.04;100.00;56920.13;4953886;28;20258;-72
2024/03/30 01:41:04;;;;;;;1.97;1.40;;;;;;;-146.04;100.00;56920.13;4950248;28;20174;-72
2024/03/30 01:43:31;;;;;;;1.43;1.00;;;;;;;-146.04;100.00;56920.13;4953925;28;20670;-72
2024/03/30 01:45:57;;;;;;;1.37;1.17;;;;;;;-146.04;100.00;56920.13;4952569;28;20564;-72
2024/03/30 01:48:23;;;;;;;2.30;1.30;;;;;;;-146.04;100.00;56920.13;4953722;28;20185;-72
2024/03/30 01:50:50;;;;;;;3.13;1.57;;;;;;;-146.04;100.00;56920.13;4948484;28;20288;-72
2024/03/30 01:53:21;;;;;;;1.30;1.20;;;;;;;-146.04;100.00;56920.13;4951343;28;20654;-72
2024/03/30 01:55:49;;;;;;;3.13;1.40;;;;;;;-146.04;100.00;56920.13;4957763;28;20574;-72
2024/03/30 01:58:21;;;;;;;2.00;1.30;;;;;;;-146.04;100.00;56920.13;4955703;28;20189;-72
2024/03/30 02:00:47;;;;;;;1.35;1.08;;;;;;;-146.04;100.00;56920.13;4962203;28;20591;-71
2024/03/30 02:03:13;;;;;;;3.53;1.87;;;;;;;-146.04;100.00;56920.13;4954637;28;20184;-71
2024/03/30 02:05:40;;;;;;;1.67;1.40;;;;;;;-146.04;100.00;56920.13;4950565;28;20295;-72
2024/03/30 02:08:06;;;;;;;1.25;1.15;;;;;;;-146.04;100.00;56920.13;4956283;28;20291;-73
2024/03/30 02:10:33;;;;;;;2.60;1.27;;;;;;;-146.04;100.00;56920.13;4956577;28;20590;-72
2024/03/30 02:12:58;;;;;;;3.13;1.73;;;;;;;-146.04;100.00;56920.13;4959721;28;20203;-72
2024/03/30 02:15:23;;;;;;;1.70;1.60;;;;;;;-146.04;100.00;56920.13;4959406;28;20622;-73
2024/03/30 02:17:49;;;;;;;2.70;1.20;;;;;;;-146.04;100.00;56920.13;4955717;28;20748;-72
2024/03/30 02:20:14;;;;;;;1.90;1.37;;;;;;;-146.04;100.00;56920.13;4953803;28;20215;-72
2024/03/30 02:22:56;;;;;;;1.67;1.30;;;;;;;-146.04;100.00;56920.13;4954151;28;20207;-72
2024/03/30 02:25:22;;;;;;;1.63;1.50;;;;;;;-146.04;100.00;56920.13;4955024;28;20209;-72
2024/03/30 02:27:49;;;;;;;1.33;1.23;;;;;;;-146.04;100.00;56920.13;4951636;28;20240;-71
2024/03/30 02:30:27;;;;;;;1.55;1.25;;;;;;;-146.04;100.00;56920.13;4953799;28;20212;-72
2024/03/30 02:32:54;;;;;;;2.05;1.55;;;;;;;-146.04;100.00;56920.13;4954494;28;20275;-73
2024/03/30 02:35:19;;;;;;;1.90;1.70;;;;;;;-146.04;100.00;56920.13;4954556;28;20207;-72
2024/03/30 02:37:48;;;;;;;2.20;1.50;;;;;;;-146.04;100.00;56920.13;4956908;28;20188;-72
2024/03/30 02:40:14;;;;;;;1.60;1.50;;;;;;;-146.04;100.00;56920.13;4973672;28;20180;-72
2024/03/30 02:42:40;;;;;;;2.45;1.80;;;;;;;-146.04;100.00;56920.13;4955629;28;20568;-72
2024/03/30 02:45:06;;;;;;;2.10;1.60;;;;;;;-146.04;100.00;56920.13;4959575;28;20205;-72
2024/03/30 02:47:32;;;;;;;1.53;1.43;;;;;;;-146.04;100.00;56920.13;4957309;28;20185;-72
2024/03/30 02:49:57;;;;;;;4.00;1.90;;;;;;;-146.04;100.00;56920.13;4956072;28;20220;-72
2024/03/30 02:52:22;;;;;;;1.83;1.60;;;;;;;-146.04;100.00;56920.13;4955443;28;20276;-72
2024/03/30 02:54:50;;;;;;;2.23;2.03;;;;;;;-146.04;100.00;56920.13;4951944;28;20209;-73
2024/03/30 02:57:15;;;;;;;2.42;1.80;;;;;;;-146.04;100.00;56920.13;4962262;28;20193;-72
2024/03/30 02:59:42;;;;;;;2.23;2.00;;;;;;;-146.04;100.00;56920.13;4953326;28;20196;-71
2024/03/30 03:02:07;;;;;;;2.60;2.03;;;;;;;-146.04;100.00;56920.13;4953595;28;20201;-71
2024/03/30 03:04:32;;;;;;;2.27;2.07;;;;;;;-146.04;100.00;56920.13;4959523;28;20286;-71
2024/03/30 03:06:58;;;;;;;2.17;1.97;;;;;;;-146.04;100.00;56920.13;4958298;28;20679;-71
2024/03/30 03:09:23;;;;;;;4.30;1.90;;;;;;;-146.04;100.00;56920.13;4959879;28;20694;-71
2024/03/30 03:11:48;;;;;;;2.40;2.10;;;;;;;-146.04;100.00;56920.13;4954534;28;20193;-72
2024/03/30 03:14:13;;;;;;;5.30;2.38;;;;;;;-146.04;100.00;56920.13;4957303;28;20565;-71
2024/03/30 03:16:39;;;;;;;2.10;1.83;;;;;;;-146.04;100.00;56920.13;4958782;28;20678;-71
2024/03/30 03:19:04;;;;;;;2.57;2.03;;;;;;;-146.04;100.00;56920.13;4960431;28;20633;-71
2024/03/30 03:21:29;;;;;;;4.77;2.17;;;;;;;-146.04;100.00;56920.13;4957416;28;20268;-72
2024/03/30 03:23:55;;;;;;;2.23;2.03;;;;;;;-146.04;100.00;56920.13;4955187;28;20660;-71
2024/03/30 03:26:20;;;;;;;2.27;1.67;;;;;;;-146.04;100.00;56920.13;4958664;28;20695;-71
2024/03/30 03:28:45;;;;;;;2.00;1.80;;;;;;;-146.04;100.00;56920.13;4956843;28;20202;-72
2024/03/30 03:31:11;;;;;;;2.40;2.10;;;;;;;-146.04;100.00;56920.13;4952027;28;20217;-71
2024/03/30 03:33:36;;;;;;;3.03;2.30;;;;;;;-146.04;100.00;56920.13;4962104;28;20188;-72
2024/03/30 03:36:01;;;;;;;3.33;2.07;;;;;;;-146.04;100.00;56920.13;4960244;28;20220;-72
2024/03/30 03:38:27;;;;;;;2.63;2.13;;;;;;;-146.04;100.00;56920.13;4963031;28;20191;-71
2024/03/30 03:40:55;;;;;;;6.07;2.50;;;;;;;-146.04;100.00;56920.13;4951732;28;20177;-72
2024/03/30 03:43:21;;;;;;;3.90;1.93;;;;;;;-146.04;100.00;56920.13;4964253;28;20198;-71
2024/03/30 03:45:47;;;;;;;2.33;2.13;;;;;;;-146.04;100.00;56920.13;4960944;28;20212;-71
2024/03/30 03:48:12;;;;;;;3.00;2.37;;;;;;;-146.04;100.00;56920.13;4961243;28;20235;-72
2024/03/30 03:50:40;;;;;;;2.53;2.10;;;;;;;-146.04;100.00;56920.13;4961884;28;20238;-71
2024/03/30 03:53:06;;;;;;;2.70;2.30;;;;;;;-146.04;100.00;56920.13;4956741;28;20223;-71
2024/03/30 03:55:32;;;;;;;2.50;2.30;;;;;;;-146.04;100.00;56920.13;4956332;28;20205;-71
2024/03/30 03:57:58;;;;;;;2.83;2.10;;;;;;;-146.04;100.00;56920.13;4974400;28;20196;-72
2024/03/30 04:00:23;;;;;;;2.20;2.00;;;;;;;-146.04;100.00;56920.13;4979520;28;20247;-72
2024/03/30 04:02:48;;;;;;;3.03;2.10;;;;;;;-146.04;100.00;56920.13;4980239;28;20259;-72
2024/03/30 04:05:15;;;;;;;3.17;2.20;;;;;;;-146.04;100.00;56920.13;4982069;28;20208;-72
2024/03/30 04:07:40;;;;;;;4.23;2.00;;;;;;;-146.04;100.00;56920.13;4972741;28;20202;-72
2024/03/30 04:10:07;;;;;;;2.33;2.03;;;;;;;-146.04;100.00;56920.13;4954519;28;20224;-72
2024/03/30 04:12:32;;;;;;;4.50;2.03;;;;;;;-146.04;100.00;56920.13;4962131;28;20196;-72
2024/03/30 04:14:58;;;;;;;2.13;1.93;;;;;;;-146.04;100.00;56920.13;4960936;28;20272;-72
2024/03/30 04:17:23;;;;;;;2.53;2.33;;;;;;;-146.04;100.00;56920.13;4952775;28;20188;-72
2024/03/30 04:19:48;;;;;;;2.27;2.07;;;;;;;-146.04;100.00;56920.13;4949497;28;20224;-72
2024/03/30 04:22:14;;;;;;;2.30;1.80;;;;;;;-146.04;100.00;56920.13;4952673;28;20267;-72
2024/03/30 04:24:39;;;;;;;2.57;1.87;;;;;;;-146.04;100.00;56920.13;4966125;28;20247;-72
2024/03/30 04:27:05;;;;;;;2.20;2.00;;;;;;;-146.04;100.00;56920.13;4956765;28;20806;-72
2024/03/30 04:29:30;;;;;;;2.17;1.73;;;;;;;-146.04;100.00;56920.13;4956072;28;20561;-72
2024/03/30 04:31:55;;;;;;;1.73;1.60;;;;;;;-146.04;100.00;56920.13;4956967;28;20303;-72
2024/03/30 04:34:20;;;;;;;2.13;1.90;;;;;;;-146.04;100.00;56920.13;4981293;28;20208;-73
2024/03/30 04:36:46;;;;;;;1.90;1.70;;;;;;;-146.04;100.00;56920.13;4982819;28;20196;-72
2024/03/30 04:39:11;;;;;;;2.00;1.40;;;;;;;-146.04;100.00;56920.13;4978526;28;20216;-73
2024/03/30 04:41:36;;;;;;;1.50;1.23;;;;;;;-146.04;100.00;56920.13;4968818;28;20280;-73
2024/03/30 04:44:02;;;;;;;3.03;1.50;;;;;;;-146.04;100.00;56920.13;4956687;28;20192;-73
2024/03/30 04:46:28;;;;;;;2.03;1.67;;;;;;;-146.04;100.00;56920.13;4956040;28;20332;-73
2024/03/30 04:48:53;;;;;;;1.47;1.27;;;;;;;-146.04;100.00;56920.13;4957291;28;20193;-73
2024/03/30 04:51:18;;;;;;;2.23;1.60;;;;;;;-146.04;100.00;56920.13;4951973;28;20311;-72
2024/03/30 04:53:44;;;;;;;1.73;1.60;;;;;;;-146.04;100.00;56920.13;4962042;28;20279;-72
2024/03/30 04:56:11;;;;;;;3.73;1.50;;;;;;;-146.04;100.00;56920.13;4954138;28;20213;-72
2024/03/30 04:58:36;;;;;;;1.93;1.63;;;;;;;-146.04;100.00;56920.13;4959785;28;20271;-72
2024/03/30 05:01:02;;;;;;;1.77;1.13;;;;;;;-146.04;100.00;56920.13;4955959;28;20188;-72
2024/03/30 05:03:27;;;;;;;1.43;1.23;;;;;;;-146.04;100.00;56920.13;4960922;28;20224;-72
2024/03/30 05:05:53;;;;;;;2.07;1.23;;;;;;;-146.04;100.00;56920.13;4959905;28;20226;-72
2024/03/30 05:08:18;;;;;;;3.50;1.47;;;;;;;-146.04;100.00;56920.13;4955178;28;20188;-72
2024/03/30 05:10:44;;;;;;;1.50;1.00;;;;;;;-146.04;100.00;56920.13;4953780;28;20216;-72
2024/03/30 05:13:09;;;;;;;1.87;1.50;;;;;;;-146.04;100.00;56920.13;4957214;28;20192;-71
2024/03/30 05:15:37;;;;;;;2.00;1.50;;;;;;;-146.04;100.00;56920.13;4955633;28;20209;-72
2024/03/30 05:18:04;;;;;;;1.70;1.33;;;;;;;-146.04;100.00;56920.13;4960567;28;20216;-72
2024/03/30 05:23:13;;;;;;;2.67;1.80;;;;;;;-146.04;100.00;56920.13;4951221;28;20287;-72
2024/03/30 05:25:40;;;;;;;2.90;2.20;;;;;;;-146.04;100.00;56920.13;4951005;28;20232;-72
2024/03/30 05:28:05;;;;;;;2.20;2.00;;;;;;;-146.04;100.00;56920.13;4953412;28;20196;-73
2024/03/30 05:30:31;;;;;;;3.10;2.43;;;;;;;-146.04;100.00;56920.13;4956398;28;20220;-72
2024/03/30 05:32:56;;;;;;;3.27;2.00;;;;;;;-146.04;100.00;56920.13;4953905;28;20192;-73
2024/03/30 05:35:21;;;;;;;4.13;2.00;;;;;;;-146.04;100.00;56920.13;4960727;28;20221;-72
2024/03/30 05:37:47;;;;;;;3.40;2.43;;;;;;;-146.04;100.00;56920.13;4955294;28;20271;-73
2024/03/30 05:40:12;;;;;;;3.73;2.83;;;;;;;-146.04;100.00;56920.13;4956835;28;20284;-72
2024/03/30 05:42:38;;;;;;;2.43;2.00;;;;;;;-146.04;100.00;56920.13;4959827;28;20188;-73
2024/03/30 05:45:04;;;;;;;7.80;2.77;;;;;;;-146.04;100.00;56920.13;4956147;28;20222;-73
2024/03/30 05:47:29;;;;;;;2.67;2.10;;;;;;;-146.04;100.00;56920.13;4961918;28;20184;-72
2024/03/30 05:49:55;;;;;;;2.40;2.20;;;;;;;-146.04;100.00;56920.13;4957914;28;20603;-72
2024/03/30 05:52:20;;;;;;;2.87;2.33;;;;;;;-146.04;100.00;56920.13;4955048;28;20636;-73
2024/03/30 05:54:46;;;;;;;5.07;2.73;;;;;;;-146.04;100.00;56920.13;4961374;28;20219;-73
2024/03/30 05:57:11;;;;;;;4.50;2.70;;;;;;;-146.04;100.00;56920.13;4961977;28;20185;-74
2024/03/30 05:59:38;;;;;;;2.77;2.50;;;;;;;-146.04;100.00;56920.13;4959639;28;20185;-73
2024/03/30 06:02:03;;;;;;;3.00;2.70;;;;;;;-146.04;100.00;56920.13;4959338;28;20196;-73
2024/03/30 06:04:29;;;;;;;3.67;2.30;;;;;;;-146.04;100.00;56920.13;4956373;28;20195;-73
2024/03/30 06:06:54;;;;;;;3.43;2.30;;;;;;;-146.04;100.00;56920.13;4964358;28;20267;-73
2024/03/30 06:09:20;;;;;;;2.87;2.57;;;;;;;-146.04;100.00;56920.13;4953602;28;20223;-73
2024/03/30 06:11:45;;;;;;;2.40;2.17;;;;;;;-146.04;100.00;56920.13;4961910;28;20640;-71
2024/03/30 06:14:10;;;;;;;4.10;2.83;;;;;;;-146.04;100.00;56920.13;4957323;28;20652;-72
2024/03/30 06:16:36;;;;;;;2.40;2.20;;;;;;;-146.04;100.00;56920.13;4956162;28;20315;-71
2024/03/30 06:19:01;;;;;;;3.03;2.33;;;;;;;-146.04;100.00;56920.13;4954962;28;20236;-71
2024/03/30 06:21:26;;;;;;;2.97;2.20;;;;;;;-146.04;100.00;56920.13;4958246;28;20193;-71
2024/03/30 06:23:53;;;;;;;4.60;2.83;;;;;;;-146.04;100.00;56920.13;4970662;28;20438;-71
2024/03/30 06:26:19;;;;;;;2.67;2.40;;;;;;;-146.04;100.00;56920.13;4954847;28;20208;-73
2024/03/30 06:28:45;;;;;;;3.20;2.30;;;;;;;-146.04;100.00;56920.13;4958250;28;20200;-71
2024/03/30 06:31:10;;;;;;;3.00;2.50;;;;;;;-146.04;100.00;56920.13;4955074;28;20208;-72
2024/03/30 06:33:36;;;;;;;2.80;2.37;;;;;;;-146.04;100.00;56920.13;4974434;28;20192;-74
2024/03/30 06:36:01;;;;;;;3.13;2.20;;;;;;;-146.04;100.00;56920.13;4953494;28;20205;-72
2024/03/30 06:38:26;;;;;;;4.00;2.50;;;;;;;-146.04;100.00;56920.13;4951494;28;20262;-72
2024/03/30 06:43:42;;;;;;;3.27;2.70;;;;;;;-146.04;100.00;56920.13;4959612;28;20684;-72
2024/03/30 06:46:08;;;;;;;2.67;2.40;;;;;;;-146.04;100.00;56920.13;4958193;28;20205;-72
2024/03/30 06:48:33;;;;;;;3.47;2.07;;;;;;;-146.04;100.00;56920.13;4954143;28;20623;-72
2024/03/30 06:50:59;;;;;;;4.33;2.43;;;;;;;-146.04;100.00;56920.13;4957570;28;20247;-72
2024/03/30 06:53:24;;;;;;;3.37;2.47;;;;;;;-146.04;100.00;56920.13;4957485;28;20236;-72
2024/03/30 06:55:49;;;;;;;5.97;2.80;;;;;;;-146.04;100.00;56920.13;4956999;28;20201;-72
2024/03/30 06:58:15;;;;;;;4.17;2.27;;;;;;;-146.04;100.00;56920.13;4959297;28;20667;-72
2024/03/30 07:00:40;;;;;;;2.40;2.20;;;;;;;-146.04;100.00;56920.13;4955231;28;20669;-72
2024/03/30 07:03:05;;;;;;;3.77;2.97;;;;;;;-146.04;100.00;56920.13;4962459;28;20196;-71
2024/03/30 07:05:31;;;;;;;2.90;2.20;;;;;;;-146.04;100.00;56920.13;5002142;23;20222;-70
2024/03/30 07:07:56;;;;;;;3.30;2.57;;;;;;;-146.04;100.00;56920.13;4996157;28;20242;-71
2024/03/30 07:10:22;;;;;;;3.60;3.20;;;;;;;-146.04;100.00;56920.13;4996281;28;20774;-70
2024/03/30 07:12:54;;;;;;;3.90;2.90;;;;;;;-146.04;100.00;56920.13;4994584;28;20199;-71
2024/03/30 07:15:20;;;;;;;3.27;2.67;;;;;;;-146.04;100.00;56920.13;4991741;28;20215;-70
2024/03/30 07:17:45;;;;;;;2.57;2.37;;;;;;;-146.04;100.00;56920.13;4993939;28;20619;-71
2024/03/30 07:20:10;;;;;;;2.50;2.20;;;;;;;-146.04;100.00;56920.13;4992294;28;20694;-70
2024/03/30 07:22:35;;;;;;;2.27;2.07;;;;;;;-146.04;100.00;56920.13;4993551;28;20229;-71
2024/03/30 07:25:01;;;;;;;3.63;2.80;;;;;;;-146.04;100.00;56920.13;4995241;28;20342;-70
2024/03/30 07:27:26;;;;;;;2.80;2.23;;;;;;;-146.04;100.00;56920.13;4991841;28;20249;-70
2024/03/30 07:29:51;;;;;;;2.73;2.30;;;;;;;-146.04;100.00;56920.13;4996753;28;20239;-71
2024/03/30 07:32:17;;;;;;;3.03;2.73;;;;;;;-146.04;100.00;56920.13;5005437;28;20452;-71
2024/03/30 07:34:47;;;;;;;4.73;2.97;;;;;;;-146.04;100.00;56920.13;4995810;28;20203;-71
2024/03/30 07:37:12;;;;;;;3.13;2.83;;;;;;;-146.04;100.00;56920.13;4996390;28;20317;-71
2024/03/30 07:39:42;;;;;;;3.93;2.70;;;;;;;-146.04;100.00;56920.13;4998353;28;20270;-70
2024/03/30 07:42:08;;;;;;;3.00;2.33;;;;;;;-146.04;100.00;56920.13;4990056;28;20274;-71
2024/03/30 07:44:34;;;;;;;3.38;2.30;;;;;;;-146.04;100.00;56920.13;4990709;28;20274;-70
2024/03/30 07:47:00;;;;;;;3.20;2.63;;;;;;;-146.04;100.00;56920.13;4994215;28;20226;-71
2024/03/30 07:49:25;;;;;;;3.53;2.90;;;;;;;-146.04;100.00;56920.13;4991813;28;20187;-71
2024/03/30 07:51:50;;;;;;;3.43;2.87;;;;;;;-146.04;100.00;56920.13;4991573;28;20685;-70
2024/03/30 07:54:16;;;;;;;4.03;2.73;;;;;;;-146.04;100.00;56920.13;4990965;28;20275;-71
2024/03/30 07:56:41;;;;;;;3.50;2.90;;;;;;;-146.04;100.00;56920.13;4991610;28;20325;-70
2024/03/30 07:59:06;;;;;;;3.93;3.20;;;;;;;-146.04;100.00;56920.13;4991980;28;20191;-70
2024/03/30 08:01:33;;;;;;;4.17;3.17;;;;;;;-146.04;100.00;56920.13;4991193;28;20534;-71
2024/03/30 08:03:59;;;;;;;3.63;2.87;;;;;;;-146.04;100.00;56920.13;4991977;28;20230;-70
2024/03/30 08:06:24;;;;;;;3.17;2.63;;;;;;;-146.04;100.00;56920.13;4988254;28;20698;-70
2024/03/30 08:08:49;;;;;;;3.23;2.80;;;;;;;-146.04;100.00;56920.13;4991737;28;20549;-71
2024/03/30 08:11:15;;;;;;;2.85;2.55;;;;;;;-146.04;100.00;56920.13;4991170;28;20688;-70
2024/03/30 08:13:40;;;;;;;3.97;3.10;;;;;;;-146.04;100.00;56920.13;4991638;28;20211;-71
2024/03/30 08:16:06;;;;;;;12.17;3.30;;;;;;;-146.04;100.00;56920.13;4990077;28;20682;-70
2024/03/30 08:18:33;;;;;;;4.07;3.17;;;;;;;-146.04;100.00;56920.13;4990267;28;20194;-71
2024/03/30 08:21:02;;;;;;;3.10;2.80;;;;;;;-146.04;100.00;56920.13;4990663;28;20240;-69
2024/03/30 08:23:28;;;;;;;3.40;2.90;;;;;;;-146.04;100.00;56920.13;4990562;28;20198;-70
2024/03/30 08:25:53;;;;;;;3.60;2.20;;;;;;;-146.04;100.00;56920.13;4991536;28;20212;-70
2024/03/30 08:28:18;;;;;;;5.87;2.83;;;;;;;-146.04;100.00;56920.13;4991574;28;20588;-71
2024/03/30 08:30:43;;;;;;;2.67;2.07;;;;;;;-146.04;100.00;56920.13;4991144;28;20246;-70
2024/03/30 08:33:09;;;;;;;2.97;2.30;;;;;;;-146.04;100.00;56920.13;4990968;28;20183;-70
2024/03/30 08:35:34;;;;;;;4.03;2.53;;;;;;;-146.04;100.00;56920.13;4992039;28;20208;-70
2024/03/30 08:37:59;;;;;;;5.67;3.07;;;;;;;-146.04;100.00;56920.13;4991051;28;20191;-71
2024/03/30 08:40:25;;;;;;;5.27;3.23;;;;;;;-146.04;100.00;56920.13;4997155;28;20192;-71
2024/03/30 08:42:50;;;;;;;3.83;3.00;;;;;;;-146.04;100.00;56920.13;4999827;28;20321;-70
2024/03/30 08:45:17;;;;;;;3.87;3.03;;;;;;;-146.04;100.00;56920.13;4991066;28;20556;-70
2024/03/30 08:47:43;;;;;;;3.63;3.10;;;;;;;-146.04;100.00;56920.13;4990750;28;20206;-70
2024/03/30 08:50:08;;;;;;;4.15;3.03;;;;;;;-146.04;100.00;56920.13;4995468;28;20242;-70
2024/03/30 08:52:33;;;;;;;4.03;3.22;;;;;;;-146.04;100.00;56920.13;4996443;28;20641;-71
2024/03/30 08:54:59;;;;;;;3.13;2.38;;;;;;;-146.04;100.00;56920.13;4992446;28;20599;-71
2024/03/30 08:57:24;;;;;;;2.45;2.00;;;;;;;-146.04;100.00;56920.13;4990737;28;20659;-70
2024/03/30 08:59:51;;;;;;;3.47;2.22;;;;;;;-146.04;100.00;56920.13;4993389;28;20199;-70
2024/03/30 09:02:18;;;;;;;3.53;2.22;;;;;;;-146.04;100.00;56920.13;4989918;28;20183;-69
2024/03/30 09:04:44;;;;;;;2.75;2.17;;;;;;;-146.04;100.00;56920.13;4993150;28;20182;-69
2024/03/30 09:07:09;;;;;;;2.33;2.13;;;;;;;-146.04;100.00;56920.13;4994247;28;20245;-70
2024/03/30 09:09:34;;;;;;;4.55;3.22;;;;;;;-146.04;100.00;56920.13;4995614;28;20332;-70
2024/03/30 09:11:59;;;;;;;2.72;2.45;;;;;;;-146.04;100.00;56920.13;4993963;28;20192;-70
2024/03/30 09:14:25;;;;;;;3.75;2.85;;;;;;;-146.04;100.00;56920.13;4995134;28;20571;-70
2024/03/30 09:16:50;;;;;;;2.83;2.50;;;;;;;-146.04;100.00;56920.13;4996182;28;20208;-70
2024/03/30 09:19:15;;;;;;;2.65;2.20;;;;;;;-146.04;100.00;56920.13;4994726;28;20210;-70
2024/03/30 09:21:41;;;;;;;4.20;2.53;;;;;;;-146.04;100.00;56920.13;4994580;28;20192;-70
2024/03/30 09:24:06;;;;;;;2.00;1.70;;;;;;;-146.04;100.00;56920.13;4994538;28;20190;-69
2024/03/30 09:26:32;;;;;;;3.05;2.30;;;;;;;-146.04;100.00;56920.13;4995103;28;20195;-70
2024/03/30 09:28:57;;;;;;;2.95;2.15;;;;;;;-146.04;100.00;56920.13;4994755;28;20187;-70
2024/03/30 09:31:23;;;;;;;1.98;1.77;;;;;;;-146.04;100.00;56920.13;4994887;28;20219;-70
2024/03/30 09:33:48;;;;;;;3.28;2.20;;;;;;;-146.04;100.00;56920.13;4994633;28;21214;-70
2024/03/30 09:36:17;;;;;;;2.25;1.98;;;;;;;-146.04;100.00;56920.13;4994926;28;20584;-71
2024/03/30 09:38:42;;;;;;;3.45;2.50;;;;;;;-146.04;100.00;56920.13;4995787;28;20212;-70
2024/03/30 09:41:12;;;;;;;2.40;1.70;;;;;;;-146.04;100.00;56920.13;4994428;28;20481;-70
2024/03/30 09:43:39;;;;;;;2.22;2.03;;;;;;;-146.04;100.00;56920.13;4995824;28;20461;-70
2024/03/30 09:46:05;;;;;;;2.25;2.03;;;;;;;-146.04;100.00;56920.13;4994949;28;20235;-71
2024/03/30 09:48:31;;;;;;;2.72;2.22;;;;;;;-146.04;100.00;56920.13;4992982;28;20654;-71
2024/03/30 09:50:57;;;;;;;2.45;2.10;;;;;;;-146.04;100.00;56920.13;4997009;28;20199;-71
2024/03/30 09:53:24;;;;;;;2.72;2.33;;;;;;;-146.04;100.00;56920.13;4997110;28;20557;-71
2024/03/30 09:55:55;;;;;;;2.67;2.42;;;;;;;-146.04;100.00;56920.13;4997384;28;20210;-71
2024/03/30 09:58:21;;;;;;;2.85;2.22;;;;;;;-146.04;100.00;56920.13;4994554;28;20717;-71
2024/03/30 10:00:48;;;;;;;2.80;2.42;;;;;;;-146.04;100.00;56920.13;4994137;28;20211;-71
2024/03/30 10:03:14;;;;;;;2.08;1.88;;;;;;;-146.04;100.00;56920.13;4994047;28;20198;-71
2024/03/30 10:05:40;;;;;;;2.75;2.55;;;;;;;-146.04;100.00;56920.13;4993899;28;20223;-71
2024/03/30 10:08:07;;;;;;;3.28;2.83;;;;;;;-146.04;100.00;56920.13;4993963;28;20226;-70
2024/03/30 10:10:33;;;;;;;3.00;2.70;;;;;;;-146.04;100.00;56920.13;4993088;28;20275;-71
2024/03/30 10:13:04;;;;;;;4.25;2.70;;;;;;;-146.04;100.00;56920.13;4999922;28;20615;-71
2024/03/30 10:15:41;;;;;;;4.20;3.50;;;;;;;-146.04;100.00;56920.13;4993862;28;20207;-70
2024/03/30 10:18:06;;;;;;;3.33;2.78;;;;;;;-146.04;100.00;56920.13;4993380;28;20717;-70
2024/03/30 10:20:32;;;;;;;3.58;2.88;;;;;;;-146.04;100.00;56920.13;4993528;28;20179;-70
2024/03/30 10:22:57;;;;;;;2.92;2.65;;;;;;;-146.04;100.00;56920.13;4993817;28;20191;-70
2024/03/30 10:25:24;;;;;;;4.60;3.28;;;;;;;-146.04;100.00;56920.13;4993801;28;20202;-70
2024/03/30 10:27:49;;;;;;;2.60;2.20;;;;;;;-146.04;100.00;56920.13;4993624;28;20266;-70
2024/03/30 10:30:16;;;;;;;3.25;2.55;;;;;;;-146.04;100.00;56920.13;4993710;28;20282;-70
2024/03/30 10:32:43;;;;;;;3.72;2.97;;;;;;;-146.04;100.00;56920.13;4993448;28;20266;-70
2024/03/30 10:35:09;;;;;;;2.10;1.90;;;;;;;-146.04;100.00;56920.13;4992123;28;20294;-71
2024/03/30 10:37:35;;;;;;;3.65;2.47;;;;;;;-146.04;100.00;56920.13;4995201;28;20266;-71
2024/03/30 10:40:05;;;;;;;3.45;2.00;;;;;;;-146.04;100.00;56920.13;4993448;28;20195;-71
2024/03/30 10:42:30;;;;;;;3.67;2.20;;;;;;;-146.04;100.00;56920.13;4993415;28;20605;-71
2024/03/30 10:44:57;;;;;;;3.80;2.20;;;;;;;-146.04;100.00;56920.13;4993452;28;20214;-71
2024/03/30 10:47:23;;;;;;;3.35;2.03;;;;;;;-146.04;100.00;56920.13;4993915;28;20176;-71
2024/03/30 10:49:48;;;;;;;2.22;2.03;;;;;;;-146.04;100.00;56920.13;4992744;28;20663;-71
2024/03/30 10:52:14;;;;;;;4.75;1.80;;;;;;;-146.04;100.00;56920.13;4993453;28;20263;-71
2024/03/30 10:54:39;;;;;;;2.47;2.10;;;;;;;-146.04;100.00;56920.13;4993102;28;20187;-71
2024/03/30 10:57:05;;;;;;;2.45;2.25;;;;;;;-146.04;100.00;56920.13;4993642;28;20227;-71
2024/03/30 10:59:40;;;;;;;2.53;2.25;;;;;;;-146.04;100.00;56920.13;4995782;28;20283;-71
2024/03/30 11:02:14;;;;;;;3.22;2.42;;;;;;;-146.04;100.00;56920.13;4995535;28;20191;-72
2024/03/30 11:04:40;;;;;;;2.97;2.33;;;;;;;-146.04;100.00;56920.13;4992909;28;20183;-71
2024/03/30 11:07:07;;;;;;;2.80;2.47;;;;;;;-146.04;100.00;56920.13;4993307;28;20183;-71
2024/03/30 11:09:35;;;;;;;4.57;3.20;;;;;;;-146.04;100.00;56920.13;4992869;28;20184;-71